Strona główna
METAR-TAF:

METAR-TAF

Lotnisko :

Winner, Dakota Południowa, Stany Zjednoczone

Szerokość geograficzna: 43-23-26N, Długość geograficzna: 099-50-33W, wysokość: 619 m

Aktualna obserwacja pogody

Raport powstał 49 minut temu, godzina 02:53 UTC
Wiatr 12 kt od zachodnio-północny zachód
Temperatura -2°C
Wilgotność 69%
Ciśnienie 1015 hPa
Widzialność: 16.1 km
Rozproszone chmury na wysokości 3400 ft
Przerywane chmury na wysokości 5000 ft
Zachmurzenie całkowite na wysokości 6000 ft

METAR: KICR 100253Z AUTO 30012KT 10SM SCT034 BKN050 OVC060 M02/M07 A2996 RMK AO2 SLP178 T10221067 53012

czas: 21:42 (03:42 UTC)


TAF: brakujący

Obserwacja i prognoza pogody dla ponad 4000 lotnisk (raport METAR i TAF).

Dostępne stacje oznaczono żółtymi i czerwonymi punktami na mapie.

Najedź kursorem aby zobaczyć nazwę stacji.

Kliknij aby zobaczyć obserwacje i prognozy pogody.

Aby zmienić mapę: kliknij na zielony przycisk z czarnym krzyżykiem, aby powiększyć; na zielony przycisk z myślnikiem, aby pomniejszyć; na zielone strzałki, aby przejść do map sąsiednich.


METAR-TAF: